CheckWX is a tool to help pilots better visualize weather data.  It is not intended as a substitute for an official pre-flight weather briefing.

22:48:23 UTC

KLEW METAR
Auburn / Lewiston Municipal Airport
Auburn/Lewiston, Maine, USA
Current

52 mins ago

KLEW 202156Z AUTO 22008KT 10SM CLR 32/23 A2969 RMK AO2 SLP063 T03220228
Observed
Jul-20 @ 21:56 UTC
Wind
  • 220° at 8 KTS
Visibility
10 SM
Flight Rules
VFR
Cloud Levels
  • Clear skies
Temperature
32°C / 90°F
Dewpoint
23°C / 73°F
Heat Index
37°C / 99°F
Humidity
59%
Altimeter
29.69" Hg
Pressure
1005.42 hPa
Previous

2 hours ago

KLEW 202056Z AUTO 20010KT 10SM CLR 33/22 A2970 RMK AO2 SLP065 T03280222 58019
Observed
Jul-20 @ 20:56 UTC
Wind
  • 200° at 10 KTS
Visibility
10 SM
Flight Rules
VFR
Cloud Levels
  • Clear skies
Temperature
33°C / 91°F
Dewpoint
22°C / 72°F
Heat Index
37°C / 98°F
Humidity
52%
Altimeter
29.7" Hg
Pressure
1005.72 hPa
Previous

3 hours ago

KLEW 201956Z AUTO 20007KT 10SM CLR 33/21 A2973 RMK AO2 SLP075 T03280211
Observed
Jul-20 @ 19:56 UTC
Wind
  • 200° at 7 KTS
Visibility
10 SM
Flight Rules
VFR
Cloud Levels
  • Clear skies
Temperature
33°C / 91°F
Dewpoint
21°C / 70°F
Heat Index
36°C / 96°F
Humidity
49%
Altimeter
29.73" Hg
Pressure
1006.82 hPa